createdAt,value
2023-01-01T00:06:55.222Z,7.97
2023-01-01T00:16:56.907Z,7.85
2023-01-01T00:26:58.509Z,10.48
2023-01-01T00:37:00.012Z,8.82
2023-01-01T00:47:01.698Z,7.20
2023-01-01T00:57:03.227Z,8.45
2023-01-01T01:07:04.751Z,8.70
2023-01-01T01:17:06.246Z,9.27
2023-01-01T01:27:07.741Z,9.15
2023-01-01T01:37:09.216Z,9.63
2023-01-01T01:47:33.752Z,11.40
2023-01-01T01:57:37.210Z,10.70
2023-01-01T02:07:38.815Z,10.38
2023-01-01T02:18:01.137Z,9.40
2023-01-01T02:28:25.910Z,9.32
2023-01-01T02:38:35.555Z,10.07
2023-01-01T02:48:37.068Z,10.77
2023-01-01T02:59:05.758Z,9.77
2023-01-01T03:09:36.583Z,8.88
2023-01-01T03:19:40.411Z,7.93
2023-01-01T03:29:43.970Z,10.20
2023-01-01T03:39:51.220Z,8.52
2023-01-01T03:49:52.777Z,8.07
2023-01-01T04:00:00.329Z,7.10
2023-01-01T04:10:02.433Z,9.20
2023-01-01T04:20:04.255Z,5.82
2023-01-01T04:30:07.641Z,5.13
2023-01-01T04:40:10.583Z,5.68
2023-01-01T04:50:12.109Z,6.03
2023-01-01T05:00:13.909Z,7.57
2023-01-01T05:10:15.532Z,4.28
2023-01-01T05:20:17.113Z,5.05
2023-01-01T05:30:18.866Z,3.20
2023-01-01T05:40:22.613Z,4.53
2023-01-01T05:50:24.134Z,4.28
2023-01-01T06:00:25.815Z,4.13
2023-01-01T06:10:27.465Z,3.58
2023-01-01T06:20:28.993Z,3.47
2023-01-01T06:30:31.687Z,3.08
2023-01-01T06:40:33.190Z,3.97
2023-01-01T06:50:39.707Z,2.75
2023-01-01T07:00:41.137Z,3.08
2023-01-01T07:10:42.604Z,3.30
2023-01-01T07:20:44.114Z,3.35
2023-01-01T07:30:45.807Z,3.78
2023-01-01T07:40:47.349Z,4.03
2023-01-01T07:50:48.955Z,3.25
2023-01-01T08:00:50.431Z,2.85
2023-01-01T08:10:51.939Z,3.80
2023-01-01T08:20:54.162Z,4.28
2023-01-01T08:30:56.060Z,3.88
2023-01-01T08:40:57.574Z,3.60
2023-01-01T08:51:00.533Z,3.00
2023-01-01T09:01:02.478Z,2.60
2023-01-01T09:11:04.220Z,1.98
2023-01-01T09:21:06.342Z,3.88
2023-01-01T09:31:07.853Z,3.38
2023-01-01T09:41:31.067Z,3.03
2023-01-01T09:51:39.875Z,4.05
2023-01-01T10:01:49.417Z,2.08
2023-01-01T10:12:06.345Z,3.97
2023-01-01T10:22:12.950Z,2.63
2023-01-01T10:32:21.125Z,2.80
2023-01-01T10:42:22.911Z,2.45
2023-01-01T10:52:27.399Z,3.92
2023-01-01T11:02:29.088Z,3.83
2023-01-01T11:22:56.046Z,2.93
2023-01-01T11:33:00.424Z,3.83
2023-01-01T11:43:04.136Z,1.80
2023-01-01T11:53:24.354Z,4.85
2023-01-01T12:03:34.173Z,3.33
2023-01-01T12:14:02.146Z,4.25
2023-01-01T12:24:05.310Z,3.33
2023-01-01T12:34:17.751Z,3.97
2023-01-01T12:44:34.757Z,2.70
2023-01-01T12:54:58.230Z,3.22
2023-01-01T13:05:17.336Z,2.67
2023-01-01T13:15:35.464Z,3.47
2023-01-01T13:25:37.113Z,4.40
2023-01-01T13:35:38.657Z,4.43
2023-01-01T13:56:35.272Z,3.30
2023-01-01T14:06:39.650Z,4.97
2023-01-01T14:16:41.828Z,3.30
2023-01-01T14:26:43.753Z,2.72
2023-01-01T14:36:53.334Z,4.82
2023-01-01T14:46:54.885Z,4.40
2023-01-01T14:56:56.398Z,4.10
2023-01-01T15:07:01.387Z,5.03
2023-01-01T15:17:10.943Z,6.72
2023-01-01T15:27:30.183Z,4.13
2023-01-01T15:37:49.403Z,7.07
2023-01-01T15:48:11.148Z,3.63
2023-01-01T15:58:32.638Z,3.97
2023-01-01T16:08:34.330Z,4.90
2023-01-01T16:18:37.581Z,3.85
2023-01-01T16:28:39.077Z,3.67
2023-01-01T16:38:40.519Z,4.40
2023-01-01T16:48:42.198Z,4.50
2023-01-01T16:58:54.269Z,5.95
2023-01-01T17:09:01.774Z,5.88
2023-01-01T17:19:18.525Z,5.53
2023-01-01T17:29:21.461Z,4.85
2023-01-01T17:39:22.976Z,3.72
2023-01-01T17:49:24.500Z,4.68
2023-01-01T17:59:26.000Z,3.53
2023-01-01T18:09:27.455Z,5.75
2023-01-01T18:19:29.391Z,3.80
2023-01-01T18:29:30.860Z,4.63
2023-01-01T18:39:35.975Z,4.68
2023-01-01T18:49:37.899Z,6.93
2023-01-01T18:59:39.415Z,2.85
2023-01-01T19:09:40.911Z,3.42
2023-01-01T19:19:42.398Z,3.60
2023-01-01T19:29:45.483Z,6.03
2023-01-01T19:39:46.985Z,5.47
2023-01-01T19:49:55.276Z,7.18
2023-01-01T19:59:57.154Z,5.57
2023-01-01T20:09:58.607Z,4.30
2023-01-01T20:20:00.197Z,5.32
2023-01-01T20:30:01.732Z,3.75
2023-01-01T20:40:08.484Z,3.70
2023-01-01T20:50:10.016Z,4.97
2023-01-01T21:00:12.296Z,4.68
2023-01-01T21:10:13.892Z,4.25
2023-01-01T21:20:15.402Z,3.67
2023-01-01T21:30:17.194Z,3.58
2023-01-01T21:40:21.719Z,2.33
2023-01-01T21:50:25.257Z,3.13
2023-01-01T22:00:27.002Z,4.22
2023-01-01T22:10:35.901Z,3.30
2023-01-01T22:20:38.822Z,3.55
2023-01-01T22:30:41.558Z,4.30
2023-01-01T22:40:43.430Z,2.65
2023-01-01T22:50:45.316Z,3.35
2023-01-01T23:00:46.837Z,3.67
2023-01-01T23:10:48.503Z,2.85
2023-01-01T23:20:50.055Z,3.58
2023-01-01T23:30:52.030Z,3.75
2023-01-01T23:40:53.727Z,2.65
2023-01-01T23:50:55.848Z,1.80
